Time;durP1;ratioP1;P1;durP2;ratioP2;P2;SDS_P1;SDS_P2;PMS_P1;PMS_P2;Temp;Humidity;BMP_temperature;BMP_pressure;BME280_temperature;BME280_humidity;BME280_pressure;Samples;Min_cycle;Max_cycle;Signal;HPM_P1;HPM_P2
2023/12/11 00:02:21;;;;;;;5.00;4.50;;;;;;;;;;4926014;29;20035;-79
2023/12/11 00:04:47;;;;;;;7.63;5.38;;;;;;;;;;4874341;29;20096;-78
2023/12/11 00:07:13;;;;;;;12.00;6.30;;;;;;;;;;4909747;29;20486;-78
2023/12/11 00:09:39;;;;;;;9.02;7.68;;;;;;;;;;4924328;29;20075;-77
2023/12/11 00:12:06;;;;;;;10.05;5.00;;;;;;;;;;4904558;29;20036;-78
2023/12/11 00:14:32;;;;;;;14.95;8.70;;;;;;;;;;4926626;29;20036;-77
2023/12/11 00:16:58;;;;;;;8.48;6.82;;;;;;;;;;4924458;29;20039;-78
2023/12/11 00:19:24;;;;;;;6.80;6.00;;;;;;;;;;4925082;29;20039;-76
2023/12/11 00:21:50;;;;;;;9.25;6.07;;;;;;;;;;4925430;29;20046;-77
2023/12/11 00:24:16;;;;;;;3.88;3.58;;;;;;;;;;4904937;29;20047;-77
2023/12/11 00:26:43;;;;;;;5.00;4.22;;;;;;;;;;4922019;29;20416;-77
2023/12/11 00:29:09;;;;;;;7.07;6.18;;;;;;;;;;4925242;29;20505;-77
2023/12/11 00:31:35;;;;;;;8.35;5.90;;;;;;;;;;4923351;29;20495;-78
2023/12/11 00:34:02;;;;;;;9.80;5.82;;;;;;;;;;4923759;29;20182;-79
2023/12/11 00:36:28;;;;;;;7.97;6.55;;;;;;;;;;4917775;29;20495;-78
2023/12/11 00:38:54;;;;;;;8.15;7.35;;;;;;;;;;4925321;29;20132;-78
2023/12/11 00:41:20;;;;;;;7.63;5.93;;;;;;;;;;4926779;29;20055;-78
2023/12/11 00:43:46;;;;;;;7.88;6.93;;;;;;;;;;4923342;29;20519;-78
2023/12/11 00:46:16;;;;;;;7.72;5.43;;;;;;;;;;4894772;29;20043;-79
2023/12/11 00:48:42;;;;;;;10.95;6.38;;;;;;;;;;4893531;29;20046;-77
2023/12/11 00:51:16;;;;;;;9.45;7.00;;;;;;;;;;4910227;29;20038;-80
2023/12/11 00:53:42;;;;;;;12.13;7.90;;;;;;;;;;4922573;29;20119;-78
2023/12/11 00:56:08;;;;;;;10.65;8.95;;;;;;;;;;4892119;29;20205;-78
2023/12/11 00:58:34;;;;;;;13.00;6.95;;;;;;;;;;4906446;29;20419;-78
2023/12/11 01:01:00;;;;;;;8.55;6.03;;;;;;;;;;4910515;29;20040;-78
2023/12/11 01:03:26;;;;;;;11.02;7.72;;;;;;;;;;4894743;29;20047;-78
2023/12/11 01:05:53;;;;;;;10.93;5.82;;;;;;;;;;4928941;29;20040;-79
2023/12/11 01:08:19;;;;;;;7.22;4.55;;;;;;;;;;4929892;29;20060;-77
2023/12/11 01:10:45;;;;;;;10.10;7.53;;;;;;;;;;4908684;29;20154;-79
2023/12/11 01:13:11;;;;;;;22.70;10.13;;;;;;;;;;4912935;29;20143;-77
2023/12/11 01:15:38;;;;;;;11.75;8.80;;;;;;;;;;4927096;29;20060;-78
2023/12/11 01:18:04;;;;;;;10.63;8.38;;;;;;;;;;4924708;29;20028;-77
2023/12/11 01:20:30;;;;;;;12.35;8.82;;;;;;;;;;4927328;29;20028;-77
2023/12/11 01:22:56;;;;;;;9.85;7.68;;;;;;;;;;4893680;29;20080;-76
2023/12/11 01:25:22;;;;;;;7.68;5.68;;;;;;;;;;4928237;29;20043;-77
2023/12/11 01:27:47;;;;;;;10.95;7.32;;;;;;;;;;4928222;29;20039;-76
2023/12/11 01:30:13;;;;;;;9.32;8.23;;;;;;;;;;4924426;29;20518;-76
2023/12/11 01:32:39;;;;;;;16.40;9.02;;;;;;;;;;4918062;29;20565;-76
2023/12/11 01:35:05;;;;;;;11.52;9.30;;;;;;;;;;4927008;29;20028;-76
2023/12/11 01:37:32;;;;;;;13.23;9.48;;;;;;;;;;4909425;29;20059;-75
2023/12/11 01:39:58;;;;;;;11.85;9.55;;;;;;;;;;4908645;29;20040;-75
2023/12/11 01:42:24;;;;;;;9.68;7.97;;;;;;;;;;4913927;29;20036;-76
2023/12/11 01:44:50;;;;;;;11.15;6.45;;;;;;;;;;4924235;29;20040;-77
2023/12/11 01:47:16;;;;;;;14.55;8.82;;;;;;;;;;4903146;29;20035;-76
2023/12/11 01:49:42;;;;;;;10.23;8.07;;;;;;;;;;4908189;29;20036;-77
2023/12/11 01:52:08;;;;;;;7.07;5.68;;;;;;;;;;4911735;29;20046;-77
2023/12/11 01:54:35;;;;;;;4.53;4.22;;;;;;;;;;4927317;29;20032;-76
2023/12/11 01:57:01;;;;;;;7.80;5.32;;;;;;;;;;4907530;29;20103;-77
2023/12/11 01:59:27;;;;;;;5.70;4.72;;;;;;;;;;4914108;29;20046;-77
2023/12/11 02:01:53;;;;;;;6.25;5.65;;;;;;;;;;4923876;29;20123;-77
2023/12/11 02:04:19;;;;;;;11.52;8.45;;;;;;;;;;4895284;29;20050;-77
2023/12/11 02:06:45;;;;;;;5.07;4.57;;;;;;;;;;4924576;29;20381;-77
2023/12/11 02:09:12;;;;;;;10.90;7.07;;;;;;;;;;4928592;29;20036;-77
2023/12/11 02:11:38;;;;;;;14.38;5.40;;;;;;;;;;4908827;29;20518;-76
2023/12/11 02:14:04;;;;;;;9.70;6.82;;;;;;;;;;4927281;29;20046;-77
2023/12/11 02:16:30;;;;;;;9.10;6.78;;;;;;;;;;4904552;29;20027;-78
2023/12/11 02:18:56;;;;;;;9.07;6.45;;;;;;;;;;4899811;29;20051;-76
2023/12/11 02:21:23;;;;;;;11.40;7.53;;;;;;;;;;4929348;29;20075;-77
2023/12/11 02:24:07;;;;;;;8.88;5.18;;;;;;;;;;4894483;29;20043;-77
2023/12/11 02:26:33;;;;;;;11.55;7.85;;;;;;;;;;4895469;29;20043;-77
2023/12/11 02:28:59;;;;;;;10.30;6.00;;;;;;;;;;4913067;29;20040;-77
2023/12/11 02:31:25;;;;;;;12.73;7.93;;;;;;;;;;4926737;29;20122;-76
2023/12/11 02:33:51;;;;;;;8.32;5.50;;;;;;;;;;4908906;29;20067;-76
2023/12/11 02:36:17;;;;;;;6.22;5.15;;;;;;;;;;4932184;29;20028;-77
2023/12/11 02:38:44;;;;;;;6.43;5.18;;;;;;;;;;4930963;29;20105;-77
2023/12/11 02:41:10;;;;;;;11.88;8.45;;;;;;;;;;4924037;29;20039;-76
2023/12/11 02:43:36;;;;;;;32.13;8.65;;;;;;;;;;4927210;29;20047;-76
2023/12/11 02:46:05;;;;;;;7.82;5.25;;;;;;;;;;4909263;29;20318;-75
2023/12/11 02:48:31;;;;;;;12.10;8.02;;;;;;;;;;4895424;29;20047;-76
2023/12/11 02:50:57;;;;;;;14.32;10.02;;;;;;;;;;4927857;29;20039;-77
2023/12/11 02:53:23;;;;;;;12.55;7.00;;;;;;;;;;4906667;29;20071;-77
2023/12/11 02:55:49;;;;;;;8.18;6.47;;;;;;;;;;4894650;29;20122;-77
2023/12/11 02:58:15;;;;;;;8.50;7.13;;;;;;;;;;4918159;29;20031;-77
2023/12/11 03:00:41;;;;;;;7.90;7.10;;;;;;;;;;4925958;29;20122;-76
2023/12/11 03:03:08;;;;;;;12.15;6.88;;;;;;;;;;4927068;29;20067;-77
2023/12/11 03:05:35;;;;;;;14.98;7.97;;;;;;;;;;4925498;29;20122;-77
2023/12/11 03:08:04;;;;;;;8.70;6.45;;;;;;;;;;4923260;29;20127;-76
2023/12/11 03:10:33;;;;;;;9.02;6.70;;;;;;;;;;4909915;29;20051;-77
2023/12/11 03:12:59;;;;;;;9.38;7.28;;;;;;;;;;4913398;29;20035;-76
2023/12/11 03:15:25;;;;;;;13.32;9.23;;;;;;;;;;4925254;29;20421;-77
2023/12/11 03:17:51;;;;;;;15.10;9.43;;;;;;;;;;4929388;29;20046;-77
2023/12/11 03:20:18;;;;;;;9.90;6.95;;;;;;;;;;4906063;29;20040;-78
2023/12/11 03:22:44;;;;;;;10.30;8.63;;;;;;;;;;4907110;29;20035;-78
2023/12/11 03:25:10;;;;;;;12.05;8.38;;;;;;;;;;4926434;29;20040;-78
2023/12/11 03:27:36;;;;;;;13.00;9.38;;;;;;;;;;4907409;29;20517;-78
2023/12/11 03:30:02;;;;;;;12.23;8.02;;;;;;;;;;4909528;29;20035;-78
2023/12/11 03:32:31;;;;;;;11.52;8.07;;;;;;;;;;4925731;29;20043;-77
2023/12/11 03:34:57;;;;;;;10.20;8.40;;;;;;;;;;4909762;29;20055;-79
2023/12/11 03:37:23;;;;;;;11.98;8.32;;;;;;;;;;4927755;29;20043;-77
2023/12/11 03:39:49;;;;;;;14.85;8.43;;;;;;;;;;4924859;29;20046;-77
2023/12/11 03:42:15;;;;;;;10.68;6.82;;;;;;;;;;4925811;29;20040;-78
2023/12/11 03:44:41;;;;;;;7.18;6.45;;;;;;;;;;4904939;29;20047;-77
2023/12/11 03:47:07;;;;;;;12.60;7.20;;;;;;;;;;4927349;29;20036;-77
2023/12/11 03:49:33;;;;;;;12.32;8.02;;;;;;;;;;4924275;29;20098;-78
2023/12/11 03:51:59;;;;;;;9.65;7.90;;;;;;;;;;4911927;29;20055;-77
2023/12/11 03:54:25;;;;;;;9.25;6.88;;;;;;;;;;4908383;29;20035;-77
2023/12/11 03:56:52;;;;;;;9.68;6.72;;;;;;;;;;4908951;29;20094;-77
2023/12/11 03:59:18;;;;;;;8.38;6.45;;;;;;;;;;4921288;29;20040;-77
2023/12/11 04:01:44;;;;;;;9.68;7.00;;;;;;;;;;4914572;29;20155;-77
2023/12/11 04:04:11;;;;;;;11.93;7.47;;;;;;;;;;4909494;29;20133;-77
2023/12/11 04:06:37;;;;;;;12.35;8.52;;;;;;;;;;4924025;29;20032;-78
2023/12/11 04:09:04;;;;;;;8.15;7.13;;;;;;;;;;4924574;29;20051;-77
2023/12/11 04:11:30;;;;;;;13.43;9.48;;;;;;;;;;4911699;29;20046;-77
2023/12/11 04:13:56;;;;;;;14.60;6.68;;;;;;;;;;4921250;29;20062;-77
2023/12/11 04:16:22;;;;;;;15.00;6.97;;;;;;;;;;4908720;29;20027;-77
2023/12/11 04:18:48;;;;;;;10.55;5.43;;;;;;;;;;4906843;29;20040;-77
2023/12/11 04:21:14;;;;;;;13.07;9.82;;;;;;;;;;4889697;29;20031;-77
2023/12/11 04:23:41;;;;;;;11.52;7.07;;;;;;;;;;4910912;29;20043;-75
2023/12/11 04:26:07;;;;;;;8.77;5.25;;;;;;;;;;4920447;29;20060;-76
2023/12/11 04:28:33;;;;;;;12.57;9.38;;;;;;;;;;4925543;29;20087;-75
2023/12/11 04:30:59;;;;;;;8.90;6.80;;;;;;;;;;4906460;29;20027;-77
2023/12/11 04:33:25;;;;;;;9.45;7.03;;;;;;;;;;4911020;29;20040;-77
2023/12/11 04:35:51;;;;;;;10.80;7.80;;;;;;;;;;4911019;29;20134;-78
2023/12/11 04:38:17;;;;;;;14.70;10.23;;;;;;;;;;4905048;29;20038;-76
2023/12/11 04:40:43;;;;;;;10.73;8.27;;;;;;;;;;4910754;29;20528;-76
2023/12/11 04:43:09;;;;;;;12.80;8.23;;;;;;;;;;4921330;29;20038;-76
2023/12/11 04:45:35;;;;;;;16.23;9.82;;;;;;;;;;4905669;29;20039;-76
2023/12/11 04:48:01;;;;;;;10.88;8.18;;;;;;;;;;4930500;29;20063;-76
2023/12/11 04:50:27;;;;;;;8.80;6.70;;;;;;;;;;4924194;29;20462;-77
2023/12/11 04:52:54;;;;;;;13.27;8.77;;;;;;;;;;4908506;29;20035;-76
2023/12/11 04:55:20;;;;;;;8.93;5.90;;;;;;;;;;4920500;29;20510;-76
2023/12/11 04:57:46;;;;;;;14.65;10.13;;;;;;;;;;4904200;29;20463;-77
2023/12/11 05:00:15;;;;;;;11.63;7.25;;;;;;;;;;4924667;29;20114;-77
2023/12/11 05:02:42;;;;;;;10.07;6.97;;;;;;;;;;4922617;29;20040;-77
2023/12/11 05:05:08;;;;;;;10.63;7.35;;;;;;;;;;4911968;29;20609;-77
2023/12/11 05:07:34;;;;;;;18.95;8.98;;;;;;;;;;4912172;29;20613;-77
2023/12/11 05:10:00;;;;;;;11.98;8.13;;;;;;;;;;4921744;29;20064;-78
2023/12/11 05:12:26;;;;;;;8.20;6.40;;;;;;;;;;4907781;29;20046;-77
2023/12/11 05:14:52;;;;;;;15.32;9.50;;;;;;;;;;4921477;29;20040;-75
2023/12/11 05:17:18;;;;;;;10.85;8.15;;;;;;;;;;4924205;29;20047;-76
2023/12/11 05:19:44;;;;;;;8.00;6.72;;;;;;;;;;4926741;29;20123;-75
2023/12/11 05:22:10;;;;;;;8.82;7.50;;;;;;;;;;4918357;29;20115;-75
2023/12/11 05:24:37;;;;;;;11.88;8.43;;;;;;;;;;4923914;29;20052;-76
2023/12/11 05:27:03;;;;;;;8.63;6.47;;;;;;;;;;4907007;29;20119;-73
2023/12/11 05:29:30;;;;;;;19.10;9.70;;;;;;;;;;4911154;29;20159;-74
2023/12/11 05:31:55;;;;;;;9.90;6.38;;;;;;;;;;4923139;29;20035;-74
2023/12/11 05:34:22;;;;;;;12.85;8.68;;;;;;;;;;4895957;29;20042;-73
2023/12/11 05:36:48;;;;;;;10.77;6.78;;;;;;;;;;4923300;29;20495;-74
2023/12/11 05:39:14;;;;;;;13.27;8.52;;;;;;;;;;4922904;29;20406;-73
2023/12/11 05:41:40;;;;;;;8.27;7.47;;;;;;;;;;4926347;29;20063;-74
2023/12/11 05:44:06;;;;;;;11.75;7.85;;;;;;;;;;4906703;29;20557;-73
2023/12/11 05:46:32;;;;;;;7.78;6.43;;;;;;;;;;4910105;29;20038;-74
2023/12/11 05:48:58;;;;;;;12.93;8.27;;;;;;;;;;4933871;29;20122;-75
2023/12/11 05:51:24;;;;;;;9.80;5.63;;;;;;;;;;4930463;29;20131;-75
2023/12/11 05:53:51;;;;;;;9.88;8.70;;;;;;;;;;4932603;29;20047;-74
2023/12/11 05:56:17;;;;;;;9.70;7.82;;;;;;;;;;4910233;29;20648;-76
2023/12/11 05:58:43;;;;;;;9.23;7.60;;;;;;;;;;4932221;29;20410;-75
2023/12/11 06:01:09;;;;;;;11.98;9.27;;;;;;;;;;4929583;29;20562;-75
2023/12/11 06:03:35;;;;;;;8.85;7.90;;;;;;;;;;4932013;29;20534;-74
2023/12/11 06:06:01;;;;;;;7.95;5.32;;;;;;;;;;4933284;29;20091;-73
2023/12/11 06:08:27;;;;;;;13.73;9.15;;;;;;;;;;4933319;29;20044;-74
2023/12/11 06:10:53;;;;;;;10.13;6.75;;;;;;;;;;4931359;29;20122;-73
2023/12/11 06:13:19;;;;;;;8.05;5.82;;;;;;;;;;4928035;29;20038;-75
2023/12/11 06:15:45;;;;;;;13.50;7.13;;;;;;;;;;4930751;29;20123;-76
2023/12/11 06:18:11;;;;;;;8.75;7.13;;;;;;;;;;4929026;29;20028;-75
2023/12/11 06:20:38;;;;;;;9.30;6.45;;;;;;;;;;4933261;29;20122;-75
2023/12/11 06:23:04;;;;;;;7.47;6.13;;;;;;;;;;4931284;29;20046;-73
2023/12/11 06:25:31;;;;;;;4.80;4.40;;;;;;;;;;4933130;29;20044;-75
2023/12/11 06:27:57;;;;;;;14.68;8.32;;;;;;;;;;4920034;29;20351;-75
2023/12/11 06:30:23;;;;;;;15.77;8.50;;;;;;;;;;4924511;29;20035;-75
2023/12/11 06:32:49;;;;;;;8.32;6.72;;;;;;;;;;4898517;29;20039;-74
2023/12/11 06:35:15;;;;;;;8.98;4.97;;;;;;;;;;4913151;29;20035;-74
2023/12/11 06:37:42;;;;;;;9.68;6.53;;;;;;;;;;4929740;29;20039;-74
2023/12/11 06:40:09;;;;;;;10.40;8.63;;;;;;;;;;4926712;29;20039;-74
2023/12/11 06:42:37;;;;;;;6.90;4.97;;;;;;;;;;4915192;29;20027;-74
2023/12/11 06:45:08;;;;;;;7.10;5.15;;;;;;;;;;4918275;29;20047;-75
2023/12/11 06:47:36;;;;;;;8.00;6.80;;;;;;;;;;4926064;29;20521;-73
2023/12/11 06:50:02;;;;;;;7.28;6.45;;;;;;;;;;4926703;29;20083;-74
2023/12/11 06:52:30;;;;;;;6.40;4.75;;;;;;;;;;4930961;29;20569;-73
2023/12/11 06:54:56;;;;;;;10.13;4.80;;;;;;;;;;4929127;29;20450;-74
2023/12/11 06:57:22;;;;;;;9.45;6.95;;;;;;;;;;4929459;29;20032;-74
2023/12/11 06:59:49;;;;;;;7.82;5.63;;;;;;;;;;4922353;29;20044;-74
2023/12/11 07:02:15;;;;;;;8.35;6.50;;;;;;;;;;4907039;29;20044;-74
2023/12/11 07:04:41;;;;;;;8.90;5.75;;;;;;;;;;4927980;29;20079;-74
2023/12/11 07:07:09;;;;;;;7.00;5.22;;;;;;;;;;4917778;29;20032;-75
2023/12/11 07:09:35;;;;;;;10.13;6.88;;;;;;;;;;4934199;29;20106;-74
2023/12/11 07:12:01;;;;;;;9.63;7.93;;;;;;;;;;4933617;29;20044;-74
2023/12/11 07:14:28;;;;;;;9.75;7.40;;;;;;;;;;4917037;29;20039;-74
2023/12/11 07:16:54;;;;;;;6.88;6.25;;;;;;;;;;4917009;29;20039;-73
2023/12/11 07:19:20;;;;;;;8.35;6.20;;;;;;;;;;4917002;29;20035;-73
2023/12/11 07:21:46;;;;;;;12.60;6.50;;;;;;;;;;4933695;29;20042;-73
2023/12/11 07:24:12;;;;;;;9.95;7.13;;;;;;;;;;4917267;29;20052;-74
2023/12/11 07:26:38;;;;;;;13.27;6.78;;;;;;;;;;4934121;29;20043;-75
2023/12/11 07:29:07;;;;;;;8.27;7.38;;;;;;;;;;4945727;29;20043;-74
2023/12/11 07:31:34;;;;;;;15.48;6.50;;;;;;;;;;4944000;29;20055;-74
2023/12/11 07:34:00;;;;;;;8.23;6.38;;;;;;;;;;4917771;29;20043;-74
2023/12/11 07:36:27;;;;;;;7.57;6.13;;;;;;;;;;4933667;29;20074;-75
2023/12/11 07:38:53;;;;;;;11.02;7.53;;;;;;;;;;4915130;29;20044;-75
2023/12/11 07:41:20;;;;;;;6.75;5.32;;;;;;;;;;4931798;29;20107;-75
2023/12/11 07:43:47;;;;;;;10.23;8.38;;;;;;;;;;4934236;29;20049;-75
2023/12/11 07:46:19;;;;;;;8.63;7.00;;;;;;;;;;4919901;29;20455;-75
2023/12/11 07:48:45;;;;;;;10.48;6.68;;;;;;;;;;4935759;29;20024;-75
2023/12/11 07:51:18;;;;;;;8.18;6.75;;;;;;;;;;4902740;29;20115;-74
2023/12/11 07:53:44;;;;;;;7.95;6.13;;;;;;;;;;4924566;29;20063;-75
2023/12/11 07:56:17;;;;;;;7.05;6.15;;;;;;;;;;4943612;29;20529;-74
2023/12/11 07:58:44;;;;;;;11.60;6.72;;;;;;;;;;4912541;29;20050;-76
2023/12/11 08:01:10;;;;;;;6.60;5.68;;;;;;;;;;4937857;29;20031;-74
2023/12/11 08:03:36;;;;;;;9.18;5.88;;;;;;;;;;4926736;29;20040;-75
2023/12/11 08:06:02;;;;;;;8.63;6.75;;;;;;;;;;4943157;29;20518;-75
2023/12/11 08:08:29;;;;;;;8.40;6.72;;;;;;;;;;4943225;29;20031;-76
2023/12/11 08:10:55;;;;;;;9.25;7.88;;;;;;;;;;4941050;29;20058;-76
2023/12/11 08:13:21;;;;;;;3.70;3.38;;;;;;;;;;4942260;29;20046;-76
2023/12/11 08:15:47;;;;;;;11.90;6.28;;;;;;;;;;4905195;29;20032;-75
2023/12/11 08:18:14;;;;;;;9.77;6.72;;;;;;;;;;4902467;29;20058;-75
2023/12/11 08:20:40;;;;;;;7.40;6.03;;;;;;;;;;4917186;29;20032;-77
2023/12/11 08:23:06;;;;;;;10.32;5.72;;;;;;;;;;4933823;29;20039;-74
2023/12/11 08:25:32;;;;;;;10.88;7.93;;;;;;;;;;4916213;29;20043;-73
2023/12/11 08:27:58;;;;;;;9.55;7.57;;;;;;;;;;4932830;29;20040;-74
2023/12/11 08:30:24;;;;;;;8.02;6.22;;;;;;;;;;4933268;29;20039;-74
2023/12/11 08:32:50;;;;;;;8.60;6.68;;;;;;;;;;4916839;29;20499;-73
2023/12/11 08:35:16;;;;;;;9.65;7.70;;;;;;;;;;4931334;29;20035;-78
2023/12/11 08:37:43;;;;;;;8.77;7.03;;;;;;;;;;4918957;29;20537;-74
2023/12/11 08:40:09;;;;;;;8.00;6.88;;;;;;;;;;4932465;29;20046;-74
2023/12/11 08:42:36;;;;;;;6.53;5.93;;;;;;;;;;4914780;29;20083;-74
2023/12/11 08:45:02;;;;;;;9.80;6.65;;;;;;;;;;4909712;29;20047;-74
2023/12/11 08:47:30;;;;;;;6.85;6.15;;;;;;;;;;4929930;29;20036;-74
2023/12/11 08:49:56;;;;;;;9.45;8.25;;;;;;;;;;4931083;29;20384;-73
2023/12/11 08:52:22;;;;;;;9.15;7.57;;;;;;;;;;4932370;29;20070;-73
2023/12/11 08:54:50;;;;;;;8.50;7.13;;;;;;;;;;4932048;29;20040;-74
2023/12/11 08:57:16;;;;;;;8.27;6.72;;;;;;;;;;4932306;29;20050;-75
2023/12/11 08:59:42;;;;;;;6.85;6.18;;;;;;;;;;4945565;29;20028;-72
2023/12/11 09:02:09;;;;;;;11.00;9.15;;;;;;;;;;4937380;29;20074;-74
2023/12/11 09:04:35;;;;;;;7.03;5.78;;;;;;;;;;4915279;29;20138;-75
2023/12/11 09:07:01;;;;;;;7.65;6.35;;;;;;;;;;4915134;29;20036;-74
2023/12/11 09:09:27;;;;;;;6.15;4.88;;;;;;;;;;4914955;29;20054;-74
2023/12/11 09:11:53;;;;;;;10.20;5.55;;;;;;;;;;4914953;29;20122;-75
2023/12/11 09:14:20;;;;;;;8.88;7.93;;;;;;;;;;4911478;29;20059;-74
2023/12/11 09:16:46;;;;;;;12.75;6.75;;;;;;;;;;4929440;29;20087;-74
2023/12/11 09:19:11;;;;;;;9.65;7.63;;;;;;;;;;4926320;29;20048;-74
2023/12/11 09:21:41;;;;;;;10.73;7.47;;;;;;;;;;4931816;29;20043;-74
2023/12/11 09:24:06;;;;;;;12.75;8.52;;;;;;;;;;4934975;29;20135;-74
2023/12/11 09:26:33;;;;;;;14.05;6.90;;;;;;;;;;4925591;29;20173;-74
2023/12/11 09:28:59;;;;;;;11.05;6.93;;;;;;;;;;4916511;29;20044;-74
2023/12/11 09:31:25;;;;;;;13.15;7.28;;;;;;;;;;4934817;29;20027;-75
2023/12/11 09:33:51;;;;;;;5.80;5.30;;;;;;;;;;4918655;29;20035;-74
2023/12/11 09:36:18;;;;;;;15.93;7.60;;;;;;;;;;4935854;29;20035;-75
2023/12/11 09:38:44;;;;;;;6.20;5.57;;;;;;;;;;4918561;29;20035;-74
2023/12/11 09:41:10;;;;;;;9.35;7.10;;;;;;;;;;4936150;29;20040;-76
2023/12/11 09:43:36;;;;;;;11.98;6.95;;;;;;;;;;4918625;29;20028;-74
2023/12/11 09:46:03;;;;;;;8.85;7.45;;;;;;;;;;4930591;29;20425;-74
2023/12/11 09:48:29;;;;;;;7.43;6.63;;;;;;;;;;4916601;29;20039;-75
2023/12/11 09:50:55;;;;;;;8.85;6.63;;;;;;;;;;4914419;29;20139;-75
2023/12/11 09:53:21;;;;;;;11.27;6.40;;;;;;;;;;4935094;29;20124;-75
2023/12/11 09:55:48;;;;;;;10.07;6.90;;;;;;;;;;4934933;29;20040;-76
2023/12/11 09:58:14;;;;;;;9.82;7.03;;;;;;;;;;4915977;29;20028;-74
2023/12/11 10:00:40;;;;;;;9.75;7.18;;;;;;;;;;4918331;29;20462;-76
2023/12/11 10:03:07;;;;;;;11.60;7.55;;;;;;;;;;4917880;29;20341;-75
2023/12/11 10:05:35;;;;;;;9.75;6.45;;;;;;;;;;4932985;29;20506;-75
2023/12/11 10:08:02;;;;;;;7.07;5.38;;;;;;;;;;4932564;29;20028;-75
2023/12/11 10:10:31;;;;;;;10.05;7.13;;;;;;;;;;4933692;29;20163;-74
2023/12/11 10:12:58;;;;;;;8.38;7.15;;;;;;;;;;4931080;29;20630;-74
2023/12/11 10:15:28;;;;;;;5.55;5.00;;;;;;;;;;4935243;29;20047;-75
2023/12/11 10:18:02;;;;;;;8.10;6.40;;;;;;;;;;4917800;29;20039;-74
2023/12/11 10:20:28;;;;;;;13.30;7.97;;;;;;;;;;4917908;29;20087;-75
2023/12/11 10:22:54;;;;;;;13.23;6.50;;;;;;;;;;4928864;29;20051;-75
2023/12/11 10:25:27;;;;;;;7.70;5.43;;;;;;;;;;4911859;29;20149;-74
2023/12/11 10:28:03;;;;;;;6.00;5.22;;;;;;;;;;4930937;29;20110;-74
2023/12/11 10:30:29;;;;;;;11.60;6.28;;;;;;;;;;4914110;29;20454;-74
2023/12/11 10:32:59;;;;;;;19.88;5.97;;;;;;;;;;4913871;29;20028;-75
2023/12/11 10:35:25;;;;;;;7.07;5.90;;;;;;;;;;4914102;29;20032;-74
2023/12/11 10:38:01;;;;;;;9.30;5.10;;;;;;;;;;4933328;29;20046;-74
2023/12/11 10:40:40;;;;;;;9.40;6.05;;;;;;;;;;4932459;29;20035;-75
2023/12/11 10:43:06;;;;;;;5.32;4.82;;;;;;;;;;4931727;29;20039;-74
2023/12/11 10:45:33;;;;;;;8.73;6.90;;;;;;;;;;4915693;29;20581;-74
2023/12/11 10:48:00;;;;;;;8.60;6.60;;;;;;;;;;4934109;29;20042;-75
2023/12/11 10:50:26;;;;;;;6.97;6.30;;;;;;;;;;4918047;29;20039;-75
2023/12/11 10:52:52;;;;;;;5.78;4.32;;;;;;;;;;4934028;29;20043;-74
2023/12/11 10:55:18;;;;;;;9.57;5.90;;;;;;;;;;4934861;29;20035;-74
2023/12/11 10:57:44;;;;;;;6.80;5.85;;;;;;;;;;4934861;29;20425;-74
2023/12/11 11:00:14;;;;;;;7.28;6.40;;;;;;;;;;4935183;29;20525;-75
2023/12/11 11:02:43;;;;;;;5.18;4.65;;;;;;;;;;4934493;29;20051;-74
2023/12/11 11:05:10;;;;;;;9.02;6.75;;;;;;;;;;4935455;29;21102;-74
2023/12/11 11:07:36;;;;;;;4.38;4.03;;;;;;;;;;4934572;29;20040;-74
2023/12/11 11:10:03;;;;;;;8.73;6.80;;;;;;;;;;4934092;29;20047;-74
2023/12/11 11:12:48;;;;;;;10.18;5.60;;;;;;;;;;4933455;29;20433;-74
2023/12/11 11:15:21;;;;;;;6.75;5.15;;;;;;;;;;4934190;29;20042;-74
2023/12/11 11:17:58;;;;;;;5.38;4.88;;;;;;;;;;4917595;29;20032;-74
2023/12/11 11:20:24;;;;;;;9.80;4.82;;;;;;;;;;4933142;29;20178;-74
2023/12/11 11:22:51;;;;;;;10.45;6.40;;;;;;;;;;4917154;29;20402;-74
2023/12/11 11:25:29;;;;;;;8.25;6.18;;;;;;;;;;4932887;29;20570;-74
2023/12/11 11:27:56;;;;;;;7.18;5.70;;;;;;;;;;4933842;29;20042;-74
2023/12/11 11:30:41;;;;;;;9.13;5.38;;;;;;;;;;4932747;29;20050;-74
2023/12/11 11:33:08;;;;;;;8.70;6.05;;;;;;;;;;4932521;29;20099;-74
2023/12/11 11:35:43;;;;;;;7.03;4.72;;;;;;;;;;4933942;29;20032;-74
2023/12/11 11:38:10;;;;;;;3.60;3.30;;;;;;;;;;4932931;29;20050;-74
2023/12/11 11:40:36;;;;;;;6.20;3.95;;;;;;;;;;4935032;29;20526;-74
2023/12/11 11:43:03;;;;;;;5.40;4.75;;;;;;;;;;4932970;29;20505;-74
2023/12/11 11:45:32;;;;;;;6.45;5.38;;;;;;;;;;4933178;29;20048;-74
2023/12/11 11:47:58;;;;;;;9.13;6.18;;;;;;;;;;4933662;29;20046;-75
2023/12/11 11:50:24;;;;;;;5.65;4.22;;;;;;;;;;4932348;29;20130;-74
2023/12/11 11:53:06;;;;;;;5.88;5.30;;;;;;;;;;4932488;29;20054;-74
2023/12/11 11:55:32;;;;;;;4.70;4.13;;;;;;;;;;4901567;29;20518;-74
2023/12/11 11:57:58;;;;;;;5.97;5.45;;;;;;;;;;4932448;29;20051;-74
2023/12/11 12:00:26;;;;;;;6.53;5.93;;;;;;;;;;4933391;29;20039;-74
2023/12/11 12:03:00;;;;;;;6.22;5.47;;;;;;;;;;4932000;29;20513;-74
2023/12/11 12:05:27;;;;;;;7.03;6.32;;;;;;;;;;4933476;29;20059;-74
2023/12/11 12:07:54;;;;;;;8.40;6.03;;;;;;;;;;4916113;29;20131;-74
2023/12/11 12:10:20;;;;;;;5.40;4.85;;;;;;;;;;4932145;29;20074;-75
2023/12/11 12:12:50;;;;;;;7.25;6.50;;;;;;;;;;4924014;29;20036;-74
2023/12/11 12:15:16;;;;;;;21.98;6.13;;;;;;;;;;4921509;29;20525;-74
2023/12/11 12:17:43;;;;;;;9.45;5.80;;;;;;;;;;4933273;29;20071;-74
2023/12/11 12:20:13;;;;;;;7.35;4.55;;;;;;;;;;4919206;29;20076;-74
2023/12/11 12:23:01;;;;;;;3.67;3.20;;;;;;;;;;4897357;29;20477;-75
2023/12/11 12:25:27;;;;;;;4.80;4.28;;;;;;;;;;4882318;29;20511;-74
2023/12/11 12:27:55;;;;;;;4.32;3.92;;;;;;;;;;4920839;29;20134;-74
2023/12/11 12:30:21;;;;;;;8.15;6.28;;;;;;;;;;4916764;29;20031;-74
2023/12/11 12:32:48;;;;;;;3.92;3.55;;;;;;;;;;4916053;29;20036;-74
2023/12/11 12:35:15;;;;;;;6.30;4.53;;;;;;;;;;4932912;29;20091;-74
2023/12/11 12:37:41;;;;;;;6.28;5.22;;;;;;;;;;4900259;29;20054;-74
2023/12/11 12:40:08;;;;;;;4.88;3.50;;;;;;;;;;4899782;29;20040;-74
2023/12/11 12:42:34;;;;;;;8.40;4.47;;;;;;;;;;4928103;29;20046;-74
2023/12/11 12:45:00;;;;;;;5.32;4.82;;;;;;;;;;4930882;29;20039;-75
2023/12/11 12:47:26;;;;;;;4.35;3.90;;;;;;;;;;4932227;29;20036;-75
2023/12/11 12:49:52;;;;;;;5.35;4.57;;;;;;;;;;4915488;29;20094;-74
2023/12/11 12:52:23;;;;;;;8.65;4.70;;;;;;;;;;4932233;29;20047;-74
2023/12/11 12:54:49;;;;;;;3.53;3.22;;;;;;;;;;4915785;29;20043;-74
2023/12/11 12:57:15;;;;;;;5.75;4.75;;;;;;;;;;4945715;29;20059;-75
2023/12/11 12:59:41;;;;;;;5.50;4.15;;;;;;;;;;4954905;28;20115;-75
2023/12/11 13:02:17;;;;;;;3.88;3.47;;;;;;;;;;4938631;29;20527;-75
2023/12/11 13:04:50;;;;;;;9.38;3.85;;;;;;;;;;4906323;29;20097;-74
2023/12/11 13:07:15;;;;;;;5.28;3.58;;;;;;;;;;4938353;29;20042;-75
2023/12/11 13:09:42;;;;;;;6.80;3.83;;;;;;;;;;4921546;29;20047;-75
2023/12/11 13:12:08;;;;;;;5.05;3.88;;;;;;;;;;4904537;29;20131;-75
2023/12/11 13:14:34;;;;;;;3.85;3.42;;;;;;;;;;4919178;29;20454;-73
2023/12/11 13:17:01;;;;;;;5.63;4.15;;;;;;;;;;4937928;29;20032;-74
2023/12/11 13:19:26;;;;;;;4.40;3.92;;;;;;;;;;4938647;29;20038;-75
2023/12/11 13:21:52;;;;;;;8.05;4.97;;;;;;;;;;4952603;29;20414;-74
2023/12/11 13:24:20;;;;;;;3.65;3.40;;;;;;;;;;4921304;29;20047;-74
2023/12/11 13:26:47;;;;;;;7.80;4.40;;;;;;;;;;4890122;29;20032;-74
2023/12/11 13:29:13;;;;;;;3.83;2.25;;;;;;;;;;4921180;29;20129;-74
2023/12/11 13:31:39;;;;;;;6.20;4.25;;;;;;;;;;4938481;29;20043;-74
2023/12/11 13:34:05;;;;;;;5.05;4.57;;;;;;;;;;4938478;29;20028;-74
2023/12/11 13:36:31;;;;;;;4.82;4.43;;;;;;;;;;4905195;29;20051;-74
2023/12/11 13:38:57;;;;;;;7.68;5.47;;;;;;;;;;4922521;29;20028;-74
2023/12/11 13:41:23;;;;;;;5.07;4.30;;;;;;;;;;4924532;29;20043;-74
2023/12/11 13:43:49;;;;;;;4.50;4.10;;;;;;;;;;4920202;29;20047;-76
2023/12/11 13:46:15;;;;;;;4.85;4.40;;;;;;;;;;4889861;29;20770;-75
2023/12/11 13:48:41;;;;;;;5.40;4.03;;;;;;;;;;4900099;29;20032;-75
2023/12/11 13:51:08;;;;;;;7.03;5.15;;;;;;;;;;4900273;29;20035;-74
2023/12/11 13:53:35;;;;;;;4.90;4.22;;;;;;;;;;4917602;29;20036;-74
2023/12/11 13:56:01;;;;;;;5.22;4.57;;;;;;;;;;4900436;29;20486;-74
2023/12/11 13:58:27;;;;;;;5.68;4.50;;;;;;;;;;4885656;29;20028;-75
2023/12/11 14:00:53;;;;;;;5.65;4.97;;;;;;;;;;4919504;29;20108;-75
2023/12/11 14:03:20;;;;;;;5.38;4.60;;;;;;;;;;4919153;29;20031;-74
2023/12/11 14:05:47;;;;;;;9.98;5.78;;;;;;;;;;4918440;29;20052;-74
2023/12/11 14:08:13;;;;;;;10.93;5.88;;;;;;;;;;4914844;29;20114;-75
2023/12/11 14:10:41;;;;;;;6.78;5.30;;;;;;;;;;4899517;29;20412;-74
2023/12/11 14:13:12;;;;;;;6.07;4.78;;;;;;;;;;4927077;29;20091;-74
2023/12/11 14:15:42;;;;;;;5.22;4.75;;;;;;;;;;4935269;29;20570;-74
2023/12/11 14:18:10;;;;;;;5.45;4.72;;;;;;;;;;4935089;29;20138;-75
2023/12/11 14:20:36;;;;;;;4.20;3.90;;;;;;;;;;4935448;29;20063;-75
2023/12/11 14:23:03;;;;;;;7.10;4.90;;;;;;;;;;4935120;29;20039;-74
2023/12/11 14:25:29;;;;;;;6.90;4.32;;;;;;;;;;4935193;29;20506;-75
2023/12/11 14:28:01;;;;;;;4.45;3.83;;;;;;;;;;4936008;29;20271;-74
2023/12/11 14:30:27;;;;;;;6.90;5.03;;;;;;;;;;4934738;29;20122;-74
2023/12/11 14:32:53;;;;;;;4.00;3.70;;;;;;;;;;4933839;29;20521;-75
2023/12/11 14:35:19;;;;;;;9.80;4.65;;;;;;;;;;4932614;29;20036;-74
2023/12/11 14:37:45;;;;;;;6.13;4.90;;;;;;;;;;4935056;29;20055;-75